sensor_id;sensor_type;location;lat;lon;timestamp;temperature;humidity
27801;DHT22;15181;49.112;11.930;2022-08-01T00:01:49;19.60;99.90
27801;DHT22;15181;49.112;11.930;2022-08-01T00:04:16;19.60;99.90
27801;DHT22;15181;49.112;11.930;2022-08-01T00:06:43;19.60;99.90
27801;DHT22;15181;49.112;11.930;2022-08-01T00:09:09;19.60;99.90
27801;DHT22;15181;49.112;11.930;2022-08-01T00:11:36;19.50;99.90
27801;DHT22;15181;49.112;11.930;2022-08-01T00:14:03;19.40;99.90
27801;DHT22;15181;49.112;11.930;2022-08-01T00:16:30;19.30;99.90
27801;DHT22;15181;49.112;11.930;2022-08-01T00:18:58;19.30;99.90
27801;DHT22;15181;49.112;11.930;2022-08-01T00:21:25;19.30;99.90
27801;DHT22;15181;49.112;11.930;2022-08-01T00:23:52;19.40;99.90
27801;DHT22;15181;49.112;11.930;2022-08-01T00:26:19;19.30;99.90
27801;DHT22;15181;49.112;11.930;2022-08-01T00:28:46;19.20;99.90
27801;DHT22;15181;49.112;11.930;2022-08-01T00:31:13;19.20;99.90
27801;DHT22;15181;49.112;11.930;2022-08-01T00:33:39;19.20;99.90
27801;DHT22;15181;49.112;11.930;2022-08-01T00:36:08;19.10;99.90
27801;DHT22;15181;49.112;11.930;2022-08-01T00:38:34;19.00;99.90
27801;DHT22;15181;49.112;11.930;2022-08-01T00:41:01;18.90;99.90
27801;DHT22;15181;49.112;11.930;2022-08-01T00:43:29;18.90;99.90
27801;DHT22;15181;49.112;11.930;2022-08-01T00:45:55;18.90;99.90
27801;DHT22;15181;49.112;11.930;2022-08-01T00:48:22;18.80;99.90
27801;DHT22;15181;49.112;11.930;2022-08-01T00:50:49;18.70;99.90
27801;DHT22;15181;49.112;11.930;2022-08-01T00:53:17;18.60;99.90
27801;DHT22;15181;49.112;11.930;2022-08-01T00:55:46;18.60;99.90
27801;DHT22;15181;49.112;11.930;2022-08-01T00:58:14;18.50;99.90
27801;DHT22;15181;49.112;11.930;2022-08-01T01:00:41;18.50;99.90
27801;DHT22;15181;49.112;11.930;2022-08-01T01:03:08;18.50;99.90
27801;DHT22;15181;49.112;11.930;2022-08-01T01:05:39;18.50;99.90
27801;DHT22;15181;49.112;11.930;2022-08-01T01:08:16;18.50;99.90
27801;DHT22;15181;49.112;11.930;2022-08-01T01:10:53;18.40;99.90
27801;DHT22;15181;49.112;11.930;2022-08-01T01:13:26;18.40;99.90
27801;DHT22;15181;49.112;11.930;2022-08-01T01:15:59;18.30;99.90
27801;DHT22;15181;49.112;11.930;2022-08-01T01:18:30;18.30;99.90
27801;DHT22;15181;49.112;11.930;2022-08-01T01:21:04;18.30;99.90
27801;DHT22;15181;49.112;11.930;2022-08-01T01:23:44;18.10;99.90
27801;DHT22;15181;49.112;11.930;2022-08-01T01:26:29;18.10;99.90
27801;DHT22;15181;49.112;11.930;2022-08-01T01:29:06;18.20;99.90
27801;DHT22;15181;49.112;11.930;2022-08-01T01:31:40;18.10;99.90
27801;DHT22;15181;49.112;11.930;2022-08-01T01:34:09;18.20;99.90
27801;DHT22;15181;49.112;11.930;2022-08-01T01:36:38;18.20;99.90
27801;DHT22;15181;49.112;11.930;2022-08-01T01:39:06;18.20;99.90
27801;DHT22;15181;49.112;11.930;2022-08-01T01:41:35;18.10;99.90
27801;DHT22;15181;49.112;11.930;2022-08-01T01:44:05;18.10;99.90
27801;DHT22;15181;49.112;11.930;2022-08-01T01:46:33;18.10;99.90
27801;DHT22;15181;49.112;11.930;2022-08-01T01:49:01;18.10;99.90
27801;DHT22;15181;49.112;11.930;2022-08-01T01:51:29;18.20;99.90
27801;DHT22;15181;49.112;11.930;2022-08-01T01:53:57;18.30;99.90
27801;DHT22;15181;49.112;11.930;2022-08-01T01:56:26;18.40;99.90
27801;DHT22;15181;49.112;11.930;2022-08-01T01:58:59;18.40;99.90
27801;DHT22;15181;49.112;11.930;2022-08-01T02:01:31;18.40;99.90
27801;DHT22;15181;49.112;11.930;2022-08-01T02:04:00;18.50;99.90
27801;DHT22;15181;49.112;11.930;2022-08-01T02:06:29;18.60;99.90
27801;DHT22;15181;49.112;11.930;2022-08-01T02:08:59;18.70;99.90
27801;DHT22;15181;49.112;11.930;2022-08-01T02:11:27;18.80;99.90
27801;DHT22;15181;49.112;11.930;2022-08-01T02:13:58;19.00;99.90
27801;DHT22;15181;49.112;11.930;2022-08-01T02:16:28;19.10;99.90
27801;DHT22;15181;49.112;11.930;2022-08-01T02:18:56;19.20;99.90
27801;DHT22;15181;49.112;11.930;2022-08-01T02:21:27;19.40;99.90
27801;DHT22;15181;49.112;11.930;2022-08-01T02:23:57;19.40;99.90
27801;DHT22;15181;49.112;11.930;2022-08-01T02:26:27;19.50;99.90
27801;DHT22;15181;49.112;11.930;2022-08-01T02:28:58;19.60;99.90
27801;DHT22;15181;49.112;11.930;2022-08-01T02:31:27;19.70;99.90
27801;DHT22;15181;49.112;11.930;2022-08-01T02:33:59;19.80;99.90
27801;DHT22;15181;49.112;11.930;2022-08-01T02:36:29;19.80;99.90
27801;DHT22;15181;49.112;11.930;2022-08-01T02:38:57;19.90;99.90
27801;DHT22;15181;49.112;11.930;2022-08-01T02:41:26;19.90;99.90
27801;DHT22;15181;49.112;11.930;2022-08-01T02:43:58;20.00;99.90
27801;DHT22;15181;49.112;11.930;2022-08-01T02:46:31;20.10;99.90
27801;DHT22;15181;49.112;11.930;2022-08-01T02:49:01;20.10;99.90
27801;DHT22;15181;49.112;11.930;2022-08-01T02:51:30;20.20;99.90
27801;DHT22;15181;49.112;11.930;2022-08-01T02:53:59;20.20;99.90
27801;DHT22;15181;49.112;11.930;2022-08-01T02:56:29;20.20;99.90
27801;DHT22;15181;49.112;11.930;2022-08-01T02:59:02;20.30;99.90
27801;DHT22;15181;49.112;11.930;2022-08-01T03:01:33;20.30;99.90
27801;DHT22;15181;49.112;11.930;2022-08-01T03:04:01;20.30;99.90
27801;DHT22;15181;49.112;11.930;2022-08-01T03:06:29;20.30;99.90
27801;DHT22;15181;49.112;11.930;2022-08-01T03:08:57;20.30;99.90
27801;DHT22;15181;49.112;11.930;2022-08-01T03:11:27;20.30;99.90
27801;DHT22;15181;49.112;11.930;2022-08-01T03:13:55;20.40;99.90
27801;DHT22;15181;49.112;11.930;2022-08-01T03:16:24;20.40;99.90
27801;DHT22;15181;49.112;11.930;2022-08-01T03:18:53;20.40;99.90
27801;DHT22;15181;49.112;11.930;2022-08-01T03:21:23;20.40;99.90
27801;DHT22;15181;49.112;11.930;2022-08-01T03:23:50;20.40;99.90
27801;DHT22;15181;49.112;11.930;2022-08-01T03:26:23;20.50;99.90
27801;DHT22;15181;49.112;11.930;2022-08-01T03:28:52;20.50;99.90
27801;DHT22;15181;49.112;11.930;2022-08-01T03:31:22;20.50;99.90
27801;DHT22;15181;49.112;11.930;2022-08-01T03:33:50;20.50;99.90
27801;DHT22;15181;49.112;11.930;2022-08-01T03:36:22;20.50;99.90
27801;DHT22;15181;49.112;11.930;2022-08-01T03:38:51;20.50;99.90
27801;DHT22;15181;49.112;11.930;2022-08-01T03:41:21;20.50;99.90
27801;DHT22;15181;49.112;11.930;2022-08-01T03:43:56;20.50;99.90
27801;DHT22;15181;49.112;11.930;2022-08-01T03:46:29;20.50;99.90
27801;DHT22;15181;49.112;11.930;2022-08-01T03:49:00;20.50;99.90
27801;DHT22;15181;49.112;11.930;2022-08-01T03:51:29;20.50;99.90
27801;DHT22;15181;49.112;11.930;2022-08-01T03:53:59;20.50;99.90
27801;DHT22;15181;49.112;11.930;2022-08-01T03:56:28;20.50;99.90
27801;DHT22;15181;49.112;11.930;2022-08-01T03:58:58;20.50;99.90
27801;DHT22;15181;49.112;11.930;2022-08-01T04:01:26;20.50;99.90
27801;DHT22;15181;49.112;11.930;2022-08-01T04:03:54;20.50;99.90
27801;DHT22;15181;49.112;11.930;2022-08-01T04:06:22;20.50;99.90
27801;DHT22;15181;49.112;11.930;2022-08-01T04:08:50;20.50;99.90
27801;DHT22;15181;49.112;11.930;2022-08-01T04:11:23;20.60;99.90
27801;DHT22;15181;49.112;11.930;2022-08-01T04:13:51;20.60;99.90
27801;DHT22;15181;49.112;11.930;2022-08-01T04:16:18;20.60;99.90
27801;DHT22;15181;49.112;11.930;2022-08-01T04:18:45;20.60;99.90
27801;DHT22;15181;49.112;11.930;2022-08-01T04:21:13;20.60;99.90
27801;DHT22;15181;49.112;11.930;2022-08-01T04:23:41;20.60;99.90
27801;DHT22;15181;49.112;11.930;2022-08-01T04:26:10;20.70;99.90
27801;DHT22;15181;49.112;11.930;2022-08-01T04:28:39;20.70;99.90
27801;DHT22;15181;49.112;11.930;2022-08-01T04:31:09;20.70;99.90
27801;DHT22;15181;49.112;11.930;2022-08-01T04:33:39;20.80;99.90
27801;DHT22;15181;49.112;11.930;2022-08-01T04:36:10;20.80;99.90
27801;DHT22;15181;49.112;11.930;2022-08-01T04:38:38;20.90;99.90
27801;DHT22;15181;49.112;11.930;2022-08-01T04:41:06;20.90;99.90
27801;DHT22;15181;49.112;11.930;2022-08-01T04:43:37;21.00;99.90
27801;DHT22;15181;49.112;11.930;2022-08-01T04:46:05;21.00;99.90
27801;DHT22;15181;49.112;11.930;2022-08-01T04:48:36;21.00;99.90
27801;DHT22;15181;49.112;11.930;2022-08-01T04:51:03;21.10;99.90
27801;DHT22;15181;49.112;11.930;2022-08-01T04:53:30;21.20;99.90
27801;DHT22;15181;49.112;11.930;2022-08-01T04:55:58;21.30;99.90
27801;DHT22;15181;49.112;11.930;2022-08-01T04:58:24;21.30;99.90
27801;DHT22;15181;49.112;11.930;2022-08-01T05:00:53;21.40;99.90
27801;DHT22;15181;49.112;11.930;2022-08-01T05:03:20;21.40;99.90
27801;DHT22;15181;49.112;11.930;2022-08-01T05:05:46;21.40;99.90
27801;DHT22;15181;49.112;11.930;2022-08-01T05:08:13;21.50;99.90
27801;DHT22;15181;49.112;11.930;2022-08-01T05:10:41;21.50;99.90
27801;DHT22;15181;49.112;11.930;2022-08-01T05:13:08;21.60;99.90
27801;DHT22;15181;49.112;11.930;2022-08-01T05:15:36;21.60;99.90
27801;DHT22;15181;49.112;11.930;2022-08-01T05:18:05;21.70;99.90
27801;DHT22;15181;49.112;11.930;2022-08-01T05:20:32;21.80;99.90
27801;DHT22;15181;49.112;11.930;2022-08-01T05:22:59;21.80;99.90
27801;DHT22;15181;49.112;11.930;2022-08-01T05:25:26;21.70;99.90
27801;DHT22;15181;49.112;11.930;2022-08-01T05:27:53;21.70;99.90
27801;DHT22;15181;49.112;11.930;2022-08-01T05:30:20;21.70;99.90
27801;DHT22;15181;49.112;11.930;2022-08-01T05:32:47;21.70;99.90
27801;DHT22;15181;49.112;11.930;2022-08-01T05:35:15;21.70;99.90
27801;DHT22;15181;49.112;11.930;2022-08-01T05:37:42;21.60;99.90
27801;DHT22;15181;49.112;11.930;2022-08-01T05:40:10;21.70;99.90
27801;DHT22;15181;49.112;11.930;2022-08-01T05:42:37;21.70;99.90
27801;DHT22;15181;49.112;11.930;2022-08-01T05:45:05;21.70;99.90
27801;DHT22;15181;49.112;11.930;2022-08-01T05:47:32;21.80;99.90
27801;DHT22;15181;49.112;11.930;2022-08-01T05:49:58;21.80;99.90
27801;DHT22;15181;49.112;11.930;2022-08-01T05:52:27;21.90;99.90
27801;DHT22;15181;49.112;11.930;2022-08-01T05:54:54;22.00;99.90
27801;DHT22;15181;49.112;11.930;2022-08-01T05:57:20;22.10;99.90
27801;DHT22;15181;49.112;11.930;2022-08-01T05:59:47;22.20;99.90
27801;DHT22;15181;49.112;11.930;2022-08-01T06:02:14;22.20;99.90
27801;DHT22;15181;49.112;11.930;2022-08-01T06:04:41;22.30;99.90
27801;DHT22;15181;49.112;11.930;2022-08-01T06:07:08;22.40;99.90
27801;DHT22;15181;49.112;11.930;2022-08-01T06:09:36;22.50;99.90
27801;DHT22;15181;49.112;11.930;2022-08-01T06:12:04;22.60;99.90
27801;DHT22;15181;49.112;11.930;2022-08-01T06:14:31;22.60;99.90
27801;DHT22;15181;49.112;11.930;2022-08-01T06:16:57;22.70;99.90
27801;DHT22;15181;49.112;11.930;2022-08-01T06:19:24;22.80;99.90
27801;DHT22;15181;49.112;11.930;2022-08-01T06:21:51;23.00;99.90
27801;DHT22;15181;49.112;11.930;2022-08-01T06:24:19;23.10;99.90
27801;DHT22;15181;49.112;11.930;2022-08-01T06:26:49;22.90;99.90
27801;DHT22;15181;49.112;11.930;2022-08-01T06:29:16;23.00;99.90
27801;DHT22;15181;49.112;11.930;2022-08-01T06:31:43;22.90;99.90
27801;DHT22;15181;49.112;11.930;2022-08-01T06:34:10;22.90;99.90
27801;DHT22;15181;49.112;11.930;2022-08-01T06:36:36;23.00;99.90
27801;DHT22;15181;49.112;11.930;2022-08-01T06:39:03;23.20;99.90
27801;DHT22;15181;49.112;11.930;2022-08-01T06:41:30;23.40;99.90
27801;DHT22;15181;49.112;11.930;2022-08-01T06:43:58;23.50;99.90
27801;DHT22;15181;49.112;11.930;2022-08-01T06:46:27;23.50;99.90
27801;DHT22;15181;49.112;11.930;2022-08-01T06:48:54;23.50;99.90
27801;DHT22;15181;49.112;11.930;2022-08-01T06:51:21;23.50;99.90
27801;DHT22;15181;49.112;11.930;2022-08-01T06:53:48;23.60;99.90
27801;DHT22;15181;49.112;11.930;2022-08-01T06:56:15;23.70;99.90
27801;DHT22;15181;49.112;11.930;2022-08-01T06:58:42;23.50;99.90
27801;DHT22;15181;49.112;11.930;2022-08-01T07:01:10;23.30;99.90
27801;DHT22;15181;49.112;11.930;2022-08-01T07:03:37;23.30;99.90
27801;DHT22;15181;49.112;11.930;2022-08-01T07:06:04;23.30;99.90
27801;DHT22;15181;49.112;11.930;2022-08-01T07:08:31;23.50;99.90
27801;DHT22;15181;49.112;11.930;2022-08-01T07:10:58;23.70;99.90
27801;DHT22;15181;49.112;11.930;2022-08-01T07:13:25;24.00;99.90
27801;DHT22;15181;49.112;11.930;2022-08-01T07:15:52;24.30;99.90
27801;DHT22;15181;49.112;11.930;2022-08-01T07:18:20;24.10;99.90
27801;DHT22;15181;49.112;11.930;2022-08-01T07:20:48;23.90;99.90
27801;DHT22;15181;49.112;11.930;2022-08-01T07:23:15;23.80;99.90
27801;DHT22;15181;49.112;11.930;2022-08-01T07:25:42;23.60;99.90
27801;DHT22;15181;49.112;11.930;2022-08-01T07:28:09;23.60;99.90
27801;DHT22;15181;49.112;11.930;2022-08-01T07:30:36;23.90;99.90
27801;DHT22;15181;49.112;11.930;2022-08-01T07:33:02;23.90;99.90
27801;DHT22;15181;49.112;11.930;2022-08-01T07:35:31;24.10;99.90
27801;DHT22;15181;49.112;11.930;2022-08-01T07:37:57;24.30;99.90
27801;DHT22;15181;49.112;11.930;2022-08-01T07:40:24;24.40;99.90
27801;DHT22;15181;49.112;11.930;2022-08-01T07:42:51;24.50;99.90
27801;DHT22;15181;49.112;11.930;2022-08-01T07:45:18;24.30;99.90
27801;DHT22;15181;49.112;11.930;2022-08-01T07:47:46;24.30;99.90
27801;DHT22;15181;49.112;11.930;2022-08-01T07:50:15;24.30;99.90
27801;DHT22;15181;49.112;11.930;2022-08-01T07:52:43;24.40;99.90
27801;DHT22;15181;49.112;11.930;2022-08-01T07:55:11;24.30;99.90
27801;DHT22;15181;49.112;11.930;2022-08-01T07:57:38;24.50;99.90
27801;DHT22;15181;49.112;11.930;2022-08-01T08:00:06;24.90;99.90
27801;DHT22;15181;49.112;11.930;2022-08-01T08:02:34;25.00;99.90
27801;DHT22;15181;49.112;11.930;2022-08-01T08:05:01;25.00;99.90
27801;DHT22;15181;49.112;11.930;2022-08-01T08:07:29;24.90;99.90
27801;DHT22;15181;49.112;11.930;2022-08-01T08:09:57;25.00;99.90
27801;DHT22;15181;49.112;11.930;2022-08-01T08:12:24;25.00;99.90
27801;DHT22;15181;49.112;11.930;2022-08-01T08:14:51;25.10;99.90
27801;DHT22;15181;49.112;11.930;2022-08-01T08:17:18;25.20;99.90
27801;DHT22;15181;49.112;11.930;2022-08-01T08:19:45;25.40;99.90
27801;DHT22;15181;49.112;11.930;2022-08-01T08:22:12;25.40;99.90
27801;DHT22;15181;49.112;11.930;2022-08-01T08:24:39;25.40;99.90
27801;DHT22;15181;49.112;11.930;2022-08-01T08:27:07;25.40;99.90
27801;DHT22;15181;49.112;11.930;2022-08-01T08:29:34;25.10;99.90
27801;DHT22;15181;49.112;11.930;2022-08-01T08:32:01;25.20;99.90
27801;DHT22;15181;49.112;11.930;2022-08-01T08:34:29;25.10;99.90
27801;DHT22;15181;49.112;11.930;2022-08-01T08:36:57;25.00;99.90
27801;DHT22;15181;49.112;11.930;2022-08-01T08:39:24;25.10;99.90
27801;DHT22;15181;49.112;11.930;2022-08-01T08:41:52;25.10;99.90
27801;DHT22;15181;49.112;11.930;2022-08-01T08:44:20;25.10;99.90
27801;DHT22;15181;49.112;11.930;2022-08-01T08:46:49;24.90;99.90
27801;DHT22;15181;49.112;11.930;2022-08-01T08:49:19;24.90;99.90
27801;DHT22;15181;49.112;11.930;2022-08-01T08:51:48;25.00;99.90
27801;DHT22;15181;49.112;11.930;2022-08-01T08:54:17;25.10;99.90
27801;DHT22;15181;49.112;11.930;2022-08-01T08:56:46;25.20;99.90
27801;DHT22;15181;49.112;11.930;2022-08-01T08:59:13;25.20;99.90
27801;DHT22;15181;49.112;11.930;2022-08-01T09:01:42;25.30;99.90
27801;DHT22;15181;49.112;11.930;2022-08-01T09:04:09;25.40;99.90
27801;DHT22;15181;49.112;11.930;2022-08-01T09:06:36;25.70;99.90
27801;DHT22;15181;49.112;11.930;2022-08-01T09:09:04;25.90;99.90
27801;DHT22;15181;49.112;11.930;2022-08-01T09:11:32;26.20;99.90
27801;DHT22;15181;49.112;11.930;2022-08-01T09:14:08;25.90;99.90
27801;DHT22;15181;49.112;11.930;2022-08-01T09:16:36;25.80;99.90
27801;DHT22;15181;49.112;11.930;2022-08-01T09:19:10;25.90;99.90
27801;DHT22;15181;49.112;11.930;2022-08-01T09:21:37;26.20;99.90
27801;DHT22;15181;49.112;11.930;2022-08-01T09:24:13;26.50;99.90
27801;DHT22;15181;49.112;11.930;2022-08-01T09:26:40;26.70;99.90
27801;DHT22;15181;49.112;11.930;2022-08-01T09:29:09;26.90;99.90
27801;DHT22;15181;49.112;11.930;2022-08-01T09:31:44;27.00;99.90
27801;DHT22;15181;49.112;11.930;2022-08-01T09:34:13;27.00;99.90
27801;DHT22;15181;49.112;11.930;2022-08-01T09:36:49;26.20;99.90
27801;DHT22;15181;49.112;11.930;2022-08-01T09:39:21;26.00;99.90
27801;DHT22;15181;49.112;11.930;2022-08-01T09:41:49;26.10;99.90
27801;DHT22;15181;49.112;11.930;2022-08-01T09:44:17;26.00;99.90
27801;DHT22;15181;49.112;11.930;2022-08-01T09:46:51;25.80;99.90
27801;DHT22;15181;49.112;11.930;2022-08-01T09:49:31;26.00;99.90
27801;DHT22;15181;49.112;11.930;2022-08-01T09:52:10;26.40;99.90
27801;DHT22;15181;49.112;11.930;2022-08-01T09:54:38;26.50;99.90
27801;DHT22;15181;49.112;11.930;2022-08-01T09:57:10;26.50;99.90
27801;DHT22;15181;49.112;11.930;2022-08-01T09:59:39;26.40;99.90
27801;DHT22;15181;49.112;11.930;2022-08-01T10:02:08;26.40;99.90
27801;DHT22;15181;49.112;11.930;2022-08-01T10:04:46;26.20;99.90
27801;DHT22;15181;49.112;11.930;2022-08-01T10:07:13;26.10;99.90
27801;DHT22;15181;49.112;11.930;2022-08-01T10:09:41;26.10;99.90
27801;DHT22;15181;49.112;11.930;2022-08-01T10:12:09;26.20;99.90
27801;DHT22;15181;49.112;11.930;2022-08-01T10:14:38;26.10;99.90
27801;DHT22;15181;49.112;11.930;2022-08-01T10:17:10;26.10;99.90
27801;DHT22;15181;49.112;11.930;2022-08-01T10:19:40;26.10;99.90
27801;DHT22;15181;49.112;11.930;2022-08-01T10:22:10;26.00;99.90
27801;DHT22;15181;49.112;11.930;2022-08-01T10:24:39;25.90;99.90
27801;DHT22;15181;49.112;11.930;2022-08-01T10:27:07;26.00;99.90
27801;DHT22;15181;49.112;11.930;2022-08-01T10:29:41;25.90;99.90
27801;DHT22;15181;49.112;11.930;2022-08-01T10:32:09;25.80;99.90
27801;DHT22;15181;49.112;11.930;2022-08-01T10:34:36;25.70;99.90
27801;DHT22;15181;49.112;11.930;2022-08-01T10:37:05;25.70;99.90
27801;DHT22;15181;49.112;11.930;2022-08-01T10:39:34;25.80;99.90
27801;DHT22;15181;49.112;11.930;2022-08-01T10:42:01;25.90;99.90
27801;DHT22;15181;49.112;11.930;2022-08-01T10:44:30;26.00;99.90
27801;DHT22;15181;49.112;11.930;2022-08-01T10:47:02;25.90;99.90
27801;DHT22;15181;49.112;11.930;2022-08-01T10:49:31;25.90;99.90
27801;DHT22;15181;49.112;11.930;2022-08-01T10:52:01;26.10;99.90
27801;DHT22;15181;49.112;11.930;2022-08-01T10:54:38;26.50;99.90
27801;DHT22;15181;49.112;11.930;2022-08-01T10:57:05;26.90;99.90
27801;DHT22;15181;49.112;11.930;2022-08-01T10:59:33;27.30;99.90
27801;DHT22;15181;49.112;11.930;2022-08-01T11:02:02;27.30;99.90
27801;DHT22;15181;49.112;11.930;2022-08-01T11:04:34;27.50;99.90
27801;DHT22;15181;49.112;11.930;2022-08-01T11:07:04;27.80;99.90
27801;DHT22;15181;49.112;11.930;2022-08-01T11:09:40;27.80;99.90
27801;DHT22;15181;49.112;11.930;2022-08-01T11:12:10;27.90;99.90
27801;DHT22;15181;49.112;11.930;2022-08-01T11:17:43;27.60;99.90
27801;DHT22;15181;49.112;11.930;2022-08-01T11:20:14;27.60;99.90
27801;DHT22;15181;49.112;11.930;2022-08-01T11:26:11;26.60;99.90
27801;DHT22;15181;49.112;11.930;2022-08-01T11:28:38;26.40;99.90
27801;DHT22;15181;49.112;11.930;2022-08-01T11:31:30;26.20;99.90
27801;DHT22;15181;49.112;11.930;2022-08-01T11:33:58;26.40;99.90
27801;DHT22;15181;49.112;11.930;2022-08-01T11:36:25;26.30;99.90
27801;DHT22;15181;49.112;11.930;2022-08-01T11:39:13;26.30;99.90
27801;DHT22;15181;49.112;11.930;2022-08-01T11:41:43;26.50;99.90
27801;DHT22;15181;49.112;11.930;2022-08-01T11:44:12;26.70;99.90
27801;DHT22;15181;49.112;11.930;2022-08-01T11:46:47;27.00;99.90
27801;DHT22;15181;49.112;11.930;2022-08-01T11:49:28;26.90;99.90
27801;DHT22;15181;49.112;11.930;2022-08-01T11:51:59;26.80;99.90
27801;DHT22;15181;49.112;11.930;2022-08-01T11:54:28;26.70;99.90
27801;DHT22;15181;49.112;11.930;2022-08-01T11:56:57;26.50;99.90
27801;DHT22;15181;49.112;11.930;2022-08-01T11:59:25;26.40;99.90
27801;DHT22;15181;49.112;11.930;2022-08-01T12:01:52;26.40;99.90
27801;DHT22;15181;49.112;11.930;2022-08-01T12:04:19;26.30;99.90
27801;DHT22;15181;49.112;11.930;2022-08-01T12:06:46;26.40;99.90
27801;DHT22;15181;49.112;11.930;2022-08-01T12:09:18;26.60;99.90
27801;DHT22;15181;49.112;11.930;2022-08-01T12:11:45;26.80;99.90
27801;DHT22;15181;49.112;11.930;2022-08-01T12:14:18;26.70;99.90
27801;DHT22;15181;49.112;11.930;2022-08-01T12:16:52;26.90;99.90
27801;DHT22;15181;49.112;11.930;2022-08-01T12:19:21;26.80;99.90
27801;DHT22;15181;49.112;11.930;2022-08-01T12:22:08;26.60;99.90
27801;DHT22;15181;49.112;11.930;2022-08-01T12:24:36;26.60;99.90
27801;DHT22;15181;49.112;11.930;2022-08-01T12:27:04;26.70;99.90
27801;DHT22;15181;49.112;11.930;2022-08-01T12:29:34;26.70;99.90
27801;DHT22;15181;49.112;11.930;2022-08-01T12:32:01;26.60;99.90
27801;DHT22;15181;49.112;11.930;2022-08-01T12:34:28;26.70;99.90
27801;DHT22;15181;49.112;11.930;2022-08-01T12:36:57;26.40;99.90
27801;DHT22;15181;49.112;11.930;2022-08-01T12:39:30;26.50;99.90
27801;DHT22;15181;49.112;11.930;2022-08-01T12:41:57;26.60;99.90
27801;DHT22;15181;49.112;11.930;2022-08-01T12:44:25;26.80;99.90
27801;DHT22;15181;49.112;11.930;2022-08-01T12:46:54;27.10;99.90
27801;DHT22;15181;49.112;11.930;2022-08-01T12:49:21;27.40;99.90
27801;DHT22;15181;49.112;11.930;2022-08-01T12:51:49;27.40;99.90
27801;DHT22;15181;49.112;11.930;2022-08-01T12:54:16;27.50;99.90
27801;DHT22;15181;49.112;11.930;2022-08-01T12:56:43;27.30;99.90
27801;DHT22;15181;49.112;11.930;2022-08-01T12:59:28;27.30;99.90
27801;DHT22;15181;49.112;11.930;2022-08-01T13:02:07;27.40;99.90
27801;DHT22;15181;49.112;11.930;2022-08-01T13:04:49;27.40;99.90
27801;DHT22;15181;49.112;11.930;2022-08-01T13:07:15;27.50;99.90
27801;DHT22;15181;49.112;11.930;2022-08-01T13:09:49;27.60;99.90
27801;DHT22;15181;49.112;11.930;2022-08-01T13:12:16;27.70;99.90
27801;DHT22;15181;49.112;11.930;2022-08-01T13:14:43;27.80;99.90
27801;DHT22;15181;49.112;11.930;2022-08-01T13:17:11;27.90;99.90
27801;DHT22;15181;49.112;11.930;2022-08-01T13:19:41;27.50;99.90
27801;DHT22;15181;49.112;11.930;2022-08-01T13:22:09;27.50;99.90
27801;DHT22;15181;49.112;11.930;2022-08-01T13:24:36;27.40;99.90
27801;DHT22;15181;49.112;11.930;2022-08-01T13:27:03;27.50;99.90
27801;DHT22;15181;49.112;11.930;2022-08-01T13:29:32;27.60;99.90
27801;DHT22;15181;49.112;11.930;2022-08-01T13:32:00;27.50;99.90
27801;DHT22;15181;49.112;11.930;2022-08-01T13:34:32;27.90;99.90
27801;DHT22;15181;49.112;11.930;2022-08-01T13:36:59;28.10;99.90
27801;DHT22;15181;49.112;11.930;2022-08-01T13:39:27;28.00;99.90
27801;DHT22;15181;49.112;11.930;2022-08-01T13:42:13;28.20;99.90
27801;DHT22;15181;49.112;11.930;2022-08-01T13:44:41;28.40;99.90
27801;DHT22;15181;49.112;11.930;2022-08-01T13:47:08;28.60;99.90
27801;DHT22;15181;49.112;11.930;2022-08-01T13:49:37;28.70;99.90
27801;DHT22;15181;49.112;11.930;2022-08-01T13:52:04;28.80;99.90
27801;DHT22;15181;49.112;11.930;2022-08-01T13:54:32;28.80;99.90
27801;DHT22;15181;49.112;11.930;2022-08-01T13:56:59;28.90;99.90
27801;DHT22;15181;49.112;11.930;2022-08-01T13:59:26;29.00;99.90
27801;DHT22;15181;49.112;11.930;2022-08-01T14:01:53;29.20;99.90
27801;DHT22;15181;49.112;11.930;2022-08-01T14:04:20;29.30;99.90
27801;DHT22;15181;49.112;11.930;2022-08-01T14:06:49;29.30;99.90
27801;DHT22;15181;49.112;11.930;2022-08-01T14:09:16;29.40;99.90
27801;DHT22;15181;49.112;11.930;2022-08-01T14:11:44;29.50;99.90
27801;DHT22;15181;49.112;11.930;2022-08-01T14:14:11;29.40;99.90
27801;DHT22;15181;49.112;11.930;2022-08-01T14:16:38;29.30;99.90
27801;DHT22;15181;49.112;11.930;2022-08-01T14:19:05;29.40;99.90
27801;DHT22;15181;49.112;11.930;2022-08-01T14:21:32;29.60;99.90
27801;DHT22;15181;49.112;11.930;2022-08-01T14:24:00;29.60;99.90
27801;DHT22;15181;49.112;11.930;2022-08-01T14:26:27;29.70;99.90
27801;DHT22;15181;49.112;11.930;2022-08-01T14:28:54;29.60;99.90
27801;DHT22;15181;49.112;11.930;2022-08-01T14:31:21;29.40;99.90
27801;DHT22;15181;49.112;11.930;2022-08-01T14:33:48;29.30;99.90
27801;DHT22;15181;49.112;11.930;2022-08-01T14:36:14;29.10;99.90
27801;DHT22;15181;49.112;11.930;2022-08-01T14:38:41;29.00;99.90
27801;DHT22;15181;49.112;11.930;2022-08-01T14:41:10;28.70;99.90
27801;DHT22;15181;49.112;11.930;2022-08-01T14:43:37;28.40;99.90
27801;DHT22;15181;49.112;11.930;2022-08-01T14:46:04;28.50;99.90
27801;DHT22;15181;49.112;11.930;2022-08-01T14:48:33;28.50;99.90
27801;DHT22;15181;49.112;11.930;2022-08-01T14:51:00;28.60;99.90
27801;DHT22;15181;49.112;11.930;2022-08-01T14:53:28;28.40;99.90
27801;DHT22;15181;49.112;11.930;2022-08-01T14:55:55;28.30;99.90
27801;DHT22;15181;49.112;11.930;2022-08-01T14:58:23;28.30;99.90
27801;DHT22;15181;49.112;11.930;2022-08-01T15:00:50;28.40;99.90
27801;DHT22;15181;49.112;11.930;2022-08-01T15:03:19;28.70;99.90
27801;DHT22;15181;49.112;11.930;2022-08-01T15:05:46;28.70;99.90
27801;DHT22;15181;49.112;11.930;2022-08-01T15:08:13;29.00;99.90
27801;DHT22;15181;49.112;11.930;2022-08-01T15:10:40;29.00;99.90
27801;DHT22;15181;49.112;11.930;2022-08-01T15:13:06;28.80;99.90
27801;DHT22;15181;49.112;11.930;2022-08-01T15:15:36;28.70;99.90
27801;DHT22;15181;49.112;11.930;2022-08-01T15:18:03;28.80;99.90
27801;DHT22;15181;49.112;11.930;2022-08-01T15:20:30;29.00;99.90
27801;DHT22;15181;49.112;11.930;2022-08-01T15:22:58;29.10;99.90
27801;DHT22;15181;49.112;11.930;2022-08-01T15:25:25;29.20;99.90
27801;DHT22;15181;49.112;11.930;2022-08-01T15:27:52;29.30;99.90
27801;DHT22;15181;49.112;11.930;2022-08-01T15:30:19;29.10;99.90
27801;DHT22;15181;49.112;11.930;2022-08-01T15:32:47;29.00;99.90